Time;durP1;ratioP1;P1;durP2;ratioP2;P2;SDS_P1;SDS_P2;PMS_P1;PMS_P2;Temp;Humidity;BMP_temperature;BMP_pressure;BME280_temperature;BME280_humidity;BME280_pressure;Samples;Min_cycle;Max_cycle;Signal;HPM_P1;HPM_P2
2023/10/03 00:02:42;;;;;;;22.40;7.95;;;;;;;;;;6130275;23;20162;-93
2023/10/03 00:05:52;;;;;;;20.15;8.10;;;;;;;;;;6127366;23;20240;-90
2023/10/03 00:08:58;;;;;;;26.63;8.13;;;;;;;;;;6127504;23;20165;-93
2023/10/03 00:12:04;;;;;;;21.45;8.43;;;;;;;;;;6126798;23;20169;-91
2023/10/03 00:15:12;;;;;;;27.90;7.93;;;;;;;;;;6128612;23;20197;-93
2023/10/03 00:18:17;;;;;;;21.65;8.25;;;;;;;;;;6127482;23;20170;-93
2023/10/03 00:21:27;;;;;;;20.15;8.10;;;;;;;;;;6126385;23;20184;-95
2023/10/03 00:24:34;;;;;;;20.63;8.20;;;;;;;;;;6128292;23;20177;-93
2023/10/03 00:27:40;;;;;;;19.70;8.02;;;;;;;;;;6126634;23;20169;-93
2023/10/03 00:30:46;;;;;;;25.38;8.10;;;;;;;;;;6129713;23;20213;-91
2023/10/03 00:33:52;;;;;;;24.48;7.88;;;;;;;;;;6128729;23;20193;-91
2023/10/03 00:37:02;;;;;;;23.15;8.13;;;;;;;;;;6129315;23;20197;-93
2023/10/03 00:40:25;;;;;;;22.95;8.27;;;;;;;;;;6111839;23;20197;-94
2023/10/03 00:43:32;;;;;;;24.23;8.40;;;;;;;;;;6127695;23;20174;-93
2023/10/03 00:46:38;;;;;;;26.15;7.97;;;;;;;;;;6127682;23;20159;-90
2023/10/03 00:49:46;;;;;;;25.10;8.68;;;;;;;;;;6129092;23;20176;-93
2023/10/03 00:52:55;;;;;;;22.70;8.25;;;;;;;;;;6145482;23;20157;-92
2023/10/03 00:56:02;;;;;;;26.80;8.82;;;;;;;;;;6126800;23;20237;-91
2023/10/03 00:59:08;;;;;;;27.80;9.10;;;;;;;;;;6127029;23;20197;-91
2023/10/03 01:02:13;;;;;;;24.15;9.25;;;;;;;;;;6124139;23;20193;-88
2023/10/03 01:05:19;;;;;;;23.10;8.95;;;;;;;;;;6124075;23;20164;-90
2023/10/03 01:08:25;;;;;;;24.60;9.45;;;;;;;;;;6124870;23;20169;-92
2023/10/03 01:11:31;;;;;;;29.30;9.38;;;;;;;;;;6123125;23;20169;-92
2023/10/03 01:14:37;;;;;;;26.40;9.35;;;;;;;;;;6124051;23;20204;-92
2023/10/03 01:17:44;;;;;;;32.88;10.23;;;;;;;;;;6123516;23;20567;-91
2023/10/03 01:20:52;;;;;;;30.73;9.52;;;;;;;;;;6124627;23;20174;-90
2023/10/03 01:23:59;;;;;;;26.58;9.27;;;;;;;;;;6124832;23;20198;-93
2023/10/03 01:27:05;;;;;;;28.67;9.20;;;;;;;;;;6124847;23;20177;-91
2023/10/03 01:30:13;;;;;;;29.40;10.00;;;;;;;;;;6125444;23;20182;-90
2023/10/03 01:33:18;;;;;;;24.48;8.88;;;;;;;;;;6124667;23;20181;-93
2023/10/03 01:36:24;;;;;;;29.38;9.38;;;;;;;;;;6123759;23;20266;-88
2023/10/03 01:39:30;;;;;;;24.45;9.18;;;;;;;;;;6125411;23;20176;-90
2023/10/03 01:42:35;;;;;;;27.73;9.80;;;;;;;;;;6125689;23;20177;-90
2023/10/03 01:45:42;;;;;;;33.95;9.68;;;;;;;;;;6124074;23;20169;-93
2023/10/03 01:48:47;;;;;;;29.40;9.70;;;;;;;;;;6124329;23;20209;-92
2023/10/03 01:51:53;;;;;;;28.15;9.43;;;;;;;;;;6124688;23;20625;-88
2023/10/03 01:55:00;;;;;;;27.77;10.25;;;;;;;;;;6125054;23;20182;-93
2023/10/03 01:58:06;;;;;;;27.10;9.48;;;;;;;;;;6123991;23;20181;-93
2023/10/03 02:01:12;;;;;;;30.10;10.18;;;;;;;;;;6123484;23;20512;-91
2023/10/03 02:04:18;;;;;;;23.98;9.45;;;;;;;;;;6123702;23;20197;-92
2023/10/03 02:07:27;;;;;;;27.98;9.52;;;;;;;;;;6124117;23;20177;-91
2023/10/03 02:10:34;;;;;;;27.35;9.45;;;;;;;;;;6126574;23;20172;-91
2023/10/03 02:13:40;;;;;;;28.83;9.95;;;;;;;;;;6124214;23;20260;-91
2023/10/03 02:16:46;;;;;;;29.48;8.93;;;;;;;;;;6123503;23;20192;-92
2023/10/03 02:19:52;;;;;;;28.50;9.18;;;;;;;;;;6123691;23;20221;-90
2023/10/03 02:22:57;;;;;;;23.63;8.68;;;;;;;;;;6123856;23;20245;-93
2023/10/03 02:26:10;;;;;;;23.75;8.43;;;;;;;;;;6122862;23;20234;-92
2023/10/03 02:29:15;;;;;;;26.77;8.43;;;;;;;;;;6123789;23;20174;-93
2023/10/03 02:32:20;;;;;;;20.83;8.68;;;;;;;;;;6123915;23;20169;-92
2023/10/03 02:35:26;;;;;;;24.15;8.23;;;;;;;;;;6125725;23;20177;-92
2023/10/03 02:38:36;;;;;;;26.75;9.13;;;;;;;;;;6125869;23;20170;-92
2023/10/03 02:41:42;;;;;;;33.13;8.60;;;;;;;;;;6126101;23;20169;-92
2023/10/03 02:44:50;;;;;;;27.30;8.80;;;;;;;;;;6127421;23;20221;-92
2023/10/03 02:47:58;;;;;;;26.80;8.40;;;;;;;;;;6126898;23;20173;-92
2023/10/03 02:51:07;;;;;;;26.90;8.57;;;;;;;;;;6126595;23;20223;-94
2023/10/03 02:54:12;;;;;;;48.38;9.07;;;;;;;;;;6126624;23;20172;-90
2023/10/03 02:57:25;;;;;;;23.02;8.70;;;;;;;;;;6126942;23;20216;-95
2023/10/03 03:00:32;;;;;;;49.10;9.55;;;;;;;;;;6127691;23;20181;-92
2023/10/03 03:03:38;;;;;;;24.80;8.50;;;;;;;;;;6126695;23;20172;-92
2023/10/03 03:06:46;;;;;;;27.00;8.55;;;;;;;;;;6126880;23;20173;-92
2023/10/03 03:09:56;;;;;;;23.90;8.35;;;;;;;;;;6125683;23;20193;-91
2023/10/03 03:13:03;;;;;;;35.40;8.95;;;;;;;;;;6127215;23;20245;-94
2023/10/03 03:16:11;;;;;;;39.05;9.45;;;;;;;;;;6126203;23;20664;-91
2023/10/03 03:19:17;;;;;;;43.58;9.15;;;;;;;;;;6124567;23;20196;-91
2023/10/03 03:22:23;;;;;;;31.08;8.65;;;;;;;;;;6125682;23;20173;-93
2023/10/03 03:25:36;;;;;;;35.13;7.97;;;;;;;;;;6126906;23;20169;-92
2023/10/03 03:28:44;;;;;;;25.92;8.55;;;;;;;;;;6126427;23;20182;-93
2023/10/03 03:31:50;;;;;;;20.00;7.63;;;;;;;;;;6125782;23;20257;-94
2023/10/03 03:34:56;;;;;;;46.50;10.45;;;;;;;;;;6125237;23;20161;-92
2023/10/03 03:38:05;;;;;;;51.22;8.63;;;;;;;;;;6125115;23;20629;-92
2023/10/03 03:41:12;;;;;;;44.65;8.43;;;;;;;;;;6125344;23;20177;-92
2023/10/03 03:44:19;;;;;;;54.97;22.23;;;;;;;;;;6124370;23;20506;-92
2023/10/03 03:47:24;;;;;;;40.97;10.35;;;;;;;;;;6140164;23;20215;-93
2023/10/03 03:50:31;;;;;;;26.40;8.45;;;;;;;;;;6123721;23;20166;-93
2023/10/03 03:53:36;;;;;;;53.85;8.25;;;;;;;;;;6126234;23;20241;-93
2023/10/03 03:56:41;;;;;;;30.23;8.35;;;;;;;;;;6126201;23;20519;-91
2023/10/03 03:59:48;;;;;;;20.58;7.40;;;;;;;;;;6126100;23;20185;-93
2023/10/03 04:02:57;;;;;;;17.13;7.20;;;;;;;;;;6124476;23;20177;-92
2023/10/03 04:06:02;;;;;;;23.38;7.07;;;;;;;;;;6124023;23;20173;-93
2023/10/03 04:09:08;;;;;;;22.85;7.65;;;;;;;;;;6124621;23;20165;-93
2023/10/03 04:12:14;;;;;;;18.30;7.35;;;;;;;;;;6123596;23;20354;-92
2023/10/03 04:15:21;;;;;;;23.33;7.60;;;;;;;;;;6126323;23;20189;-93
2023/10/03 04:18:27;;;;;;;21.60;7.63;;;;;;;;;;6124470;23;20262;-93
2023/10/03 04:21:32;;;;;;;18.60;7.00;;;;;;;;;;6126924;23;20185;-92
2023/10/03 04:24:38;;;;;;;16.77;7.35;;;;;;;;;;6125995;23;20209;-92
2023/10/03 04:27:43;;;;;;;19.27;7.00;;;;;;;;;;6125339;23;20196;-94
2023/10/03 04:30:53;;;;;;;22.15;7.15;;;;;;;;;;6126049;23;20164;-93
2023/10/03 04:33:58;;;;;;;26.02;7.93;;;;;;;;;;6125018;23;20176;-93
2023/10/03 04:37:03;;;;;;;33.65;7.57;;;;;;;;;;6123715;23;20193;-91
2023/10/03 04:40:14;;;;;;;52.78;8.77;;;;;;;;;;6124772;23;20192;-93
2023/10/03 04:43:20;;;;;;;23.13;6.97;;;;;;;;;;6125970;23;20180;-92
2023/10/03 04:46:26;;;;;;;35.78;7.60;;;;;;;;;;6125295;23;20173;-94
2023/10/03 04:49:32;;;;;;;27.98;7.68;;;;;;;;;;6124455;23;20734;-91
2023/10/03 04:52:37;;;;;;;24.17;7.28;;;;;;;;;;6124275;23;20630;-91
2023/10/03 04:55:47;;;;;;;26.00;7.55;;;;;;;;;;6124666;23;20185;-93
2023/10/03 04:58:52;;;;;;;40.42;7.72;;;;;;;;;;6123690;23;20172;-94
2023/10/03 05:02:01;;;;;;;27.95;7.53;;;;;;;;;;6127006;23;20241;-93
2023/10/03 05:05:06;;;;;;;50.97;7.60;;;;;;;;;;6125007;23;20180;-93
2023/10/03 05:08:12;;;;;;;74.65;8.73;;;;;;;;;;6124629;23;20190;-92
2023/10/03 05:11:17;;;;;;;42.45;8.70;;;;;;;;;;6125622;23;20194;-92
2023/10/03 05:14:22;;;;;;;36.28;7.97;;;;;;;;;;6127220;23;20177;-90
2023/10/03 05:17:29;;;;;;;32.28;7.75;;;;;;;;;;6124636;23;20196;-89
2023/10/03 05:20:38;;;;;;;26.38;8.35;;;;;;;;;;6128871;23;20157;-91
2023/10/03 05:23:43;;;;;;;34.72;7.60;;;;;;;;;;6122781;23;20214;-91
2023/10/03 05:26:49;;;;;;;33.13;7.68;;;;;;;;;;6122381;23;20174;-92
2023/10/03 05:29:54;;;;;;;33.35;7.47;;;;;;;;;;6123706;23;20177;-93
2023/10/03 05:33:00;;;;;;;47.60;8.93;;;;;;;;;;6122838;23;20172;-93
2023/10/03 05:36:05;;;;;;;30.05;9.30;;;;;;;;;;6123427;23;20152;-94
2023/10/03 05:39:11;;;;;;;18.80;7.32;;;;;;;;;;6140694;23;20232;-92
2023/10/03 05:42:18;;;;;;;17.52;6.80;;;;;;;;;;6122318;23;20169;-94
2023/10/03 05:45:23;;;;;;;22.00;7.38;;;;;;;;;;6123743;23;20165;-91
2023/10/03 05:48:31;;;;;;;25.70;7.57;;;;;;;;;;6123359;23;20633;-92
2023/10/03 05:51:35;;;;;;;25.08;7.40;;;;;;;;;;6126077;23;20189;-91
2023/10/03 05:54:41;;;;;;;35.25;8.23;;;;;;;;;;6123929;23;20169;-93
2023/10/03 05:57:46;;;;;;;17.13;6.95;;;;;;;;;;6123331;23;20196;-93
2023/10/03 06:00:52;;;;;;;37.28;7.03;;;;;;;;;;6124011;23;20181;-93
2023/10/03 06:03:58;;;;;;;23.00;7.57;;;;;;;;;;6123033;23;20166;-92
2023/10/03 06:07:06;;;;;;;17.98;7.10;;;;;;;;;;6123440;23;20164;-94
2023/10/03 06:10:15;;;;;;;25.00;7.55;;;;;;;;;;6124314;23;20177;-92
2023/10/03 06:13:21;;;;;;;14.85;6.50;;;;;;;;;;6126281;23;20172;-91
2023/10/03 06:16:28;;;;;;;26.98;6.97;;;;;;;;;;6128126;23;20177;-93
2023/10/03 06:19:37;;;;;;;50.97;7.65;;;;;;;;;;6127597;23;20176;-93
2023/10/03 06:22:42;;;;;;;22.73;7.47;;;;;;;;;;6128837;23;20173;-93
2023/10/03 06:25:48;;;;;;;17.80;6.70;;;;;;;;;;6127677;23;20621;-92
2023/10/03 06:28:55;;;;;;;47.80;6.93;;;;;;;;;;6129396;23;20174;-93
2023/10/03 06:32:01;;;;;;;15.60;6.97;;;;;;;;;;6125513;23;20193;-95
2023/10/03 06:35:10;;;;;;;18.52;7.13;;;;;;;;;;6128790;23;20213;-93
2023/10/03 06:38:16;;;;;;;48.65;7.47;;;;;;;;;;6127667;23;20205;-92
2023/10/03 06:41:22;;;;;;;30.88;7.20;;;;;;;;;;6128439;23;20238;-92
2023/10/03 06:44:27;;;;;;;22.55;6.82;;;;;;;;;;6125548;23;20165;-92
2023/10/03 06:47:34;;;;;;;22.67;7.63;;;;;;;;;;6124281;23;20158;-91
2023/10/03 06:50:42;;;;;;;59.45;7.97;;;;;;;;;;6124517;23;20186;-93
2023/10/03 06:53:48;;;;;;;42.78;7.65;;;;;;;;;;6126841;23;20169;-90
2023/10/03 06:56:52;;;;;;;18.70;8.07;;;;;;;;;;6126273;23;20264;-95
2023/10/03 06:59:58;;;;;;;21.15;7.25;;;;;;;;;;6126815;23;20204;-91
2023/10/03 07:03:03;;;;;;;20.25;7.32;;;;;;;;;;6125150;23;20169;-92
2023/10/03 07:06:10;;;;;;;17.35;7.45;;;;;;;;;;6124404;23;20177;-94
2023/10/03 07:09:17;;;;;;;30.27;8.25;;;;;;;;;;6126167;23;20176;-94
2023/10/03 07:12:22;;;;;;;35.17;7.35;;;;;;;;;;6123050;23;20181;-93
2023/10/03 07:15:28;;;;;;;19.25;7.88;;;;;;;;;;6127078;23;20241;-94
2023/10/03 07:18:35;;;;;;;17.58;7.72;;;;;;;;;;6123823;23;20189;-94
2023/10/03 07:21:41;;;;;;;19.38;8.27;;;;;;;;;;6124751;23;20241;-91
2023/10/03 07:24:47;;;;;;;19.90;8.40;;;;;;;;;;6129165;23;20198;-95
2023/10/03 07:27:53;;;;;;;19.73;7.85;;;;;;;;;;6127914;23;20198;-94
2023/10/03 07:30:58;;;;;;;16.95;8.00;;;;;;;;;;6128241;23;20267;-94
2023/10/03 07:34:04;;;;;;;20.42;8.48;;;;;;;;;;6127695;23;20202;-93
2023/10/03 07:37:10;;;;;;;25.88;9.07;;;;;;;;;;6127501;23;20246;-91
2023/10/03 07:40:18;;;;;;;19.30;8.73;;;;;;;;;;6126302;23;20264;-94
2023/10/03 07:43:24;;;;;;;20.02;9.10;;;;;;;;;;6126919;23;20157;-93
2023/10/03 07:46:30;;;;;;;19.08;9.15;;;;;;;;;;6126710;23;20217;-93
2023/10/03 07:49:35;;;;;;;31.50;9.65;;;;;;;;;;6125168;23;20161;-96
2023/10/03 07:52:44;;;;;;;21.90;9.07;;;;;;;;;;6126211;23;20230;-92
2023/10/03 07:55:52;;;;;;;24.02;8.57;;;;;;;;;;6126971;23;20189;-94
2023/10/03 07:59:01;;;;;;;21.00;8.82;;;;;;;;;;6126307;23;20197;-91
2023/10/03 08:02:10;;;;;;;21.35;8.60;;;;;;;;;;6127032;23;20185;-95
2023/10/03 08:08:37;;;;;;;16.33;7.70;;;;;;;;;;6127780;23;20177;-94
2023/10/03 08:11:46;;;;;;;18.60;8.07;;;;;;;;;;6126911;23;20157;-93
2023/10/03 08:14:55;;;;;;;18.33;8.40;;;;;;;;;;6128864;23;20194;-91
2023/10/03 08:18:00;;;;;;;17.05;8.00;;;;;;;;;;6130313;23;20200;-91
2023/10/03 08:21:08;;;;;;;16.02;7.63;;;;;;;;;;6127850;23;20182;-94
2023/10/03 08:24:19;;;;;;;15.95;7.60;;;;;;;;;;6128354;23;20180;-93
2023/10/03 08:27:30;;;;;;;19.63;8.30;;;;;;;;;;6128100;23;20181;-93
2023/10/03 08:30:35;;;;;;;19.88;8.20;;;;;;;;;;6127875;23;20173;-95
2023/10/03 08:33:43;;;;;;;18.30;8.38;;;;;;;;;;6128352;23;20165;-92
2023/10/03 08:36:53;;;;;;;23.65;8.02;;;;;;;;;;6129831;23;20185;-93
2023/10/03 08:40:03;;;;;;;17.23;8.05;;;;;;;;;;6128632;23;20266;-93
2023/10/03 08:43:09;;;;;;;18.40;8.55;;;;;;;;;;6127324;23;20174;-92
2023/10/03 08:46:16;;;;;;;19.38;7.85;;;;;;;;;;6126863;23;20222;-92
2023/10/03 08:49:22;;;;;;;18.48;7.43;;;;;;;;;;6127734;23;20170;-91
2023/10/03 08:52:39;;;;;;;18.45;7.97;;;;;;;;;;6129347;23;20190;-94
2023/10/03 08:55:49;;;;;;;17.15;7.22;;;;;;;;;;6130532;23;20172;-93
2023/10/03 08:58:56;;;;;;;17.92;7.97;;;;;;;;;;6129773;23;20205;-93
2023/10/03 09:02:05;;;;;;;17.05;7.35;;;;;;;;;;6130594;23;20198;-93
2023/10/03 09:05:15;;;;;;;15.43;7.35;;;;;;;;;;6128940;23;20194;-93
2023/10/03 09:08:25;;;;;;;19.23;7.82;;;;;;;;;;6129765;23;20173;-94
2023/10/03 09:11:37;;;;;;;21.35;7.85;;;;;;;;;;6113566;23;20218;-92
2023/10/03 09:14:44;;;;;;;17.05;7.72;;;;;;;;;;6129424;23;20227;-95
2023/10/03 09:17:51;;;;;;;18.92;7.38;;;;;;;;;;6128267;23;20190;-94
2023/10/03 09:21:06;;;;;;;20.17;8.10;;;;;;;;;;6129798;23;20255;-95
2023/10/03 09:24:14;;;;;;;22.08;7.78;;;;;;;;;;6129663;23;20161;-93
2023/10/03 09:27:29;;;;;;;20.83;7.50;;;;;;;;;;6147603;23;20149;-92
2023/10/03 10:44:05;;;;;;;18.58;7.38;;;;;;;;;;6040194;22;4223875;-93
2023/10/03 10:47:14;;;;;;;19.00;7.50;;;;;;;;;;6114589;23;20241;-91
2023/10/03 10:50:25;;;;;;;20.98;7.05;;;;;;;;;;6112824;23;20242;-92
2023/10/03 10:53:37;;;;;;;24.75;8.05;;;;;;;;;;6113334;23;20289;-89
2023/10/03 10:56:43;;;;;;;16.27;6.60;;;;;;;;;;6113622;23;20166;-93
2023/10/03 10:59:49;;;;;;;20.20;6.50;;;;;;;;;;6111787;23;20170;-93
2023/10/03 11:02:56;;;;;;;20.65;6.95;;;;;;;;;;6114610;23;20169;-96
2023/10/03 16:11:08;;;;;;;19.05;7.40;;;;;;;;;;6128913;23;20220;-93
2023/10/03 16:14:16;;;;;;;21.05;7.15;;;;;;;;;;6157530;23;20176;-92
2023/10/03 16:17:25;;;;;;;21.70;7.30;;;;;;;;;;6174277;23;20209;-93
2023/10/03 16:20:31;;;;;;;19.70;7.78;;;;;;;;;;6175764;23;20208;-90
2023/10/03 17:17:22;;;;;;;19.77;7.53;;;;;;;;;;6127713;23;20221;-92
2023/10/03 17:20:31;;;;;;;19.33;7.85;;;;;;;;;;6129992;23;20209;-90
2023/10/03 17:23:39;;;;;;;18.95;8.23;;;;;;;;;;6133213;23;20184;-91
2023/10/03 17:26:56;;;;;;;16.60;7.07;;;;;;;;;;6114591;23;20169;-93
2023/10/03 17:30:05;;;;;;;17.52;7.90;;;;;;;;;;6130823;23;20172;-93
2023/10/03 17:36:39;;;;;;;32.85;11.90;;;;;;;;;;6147549;23;20149;-92
2023/10/03 17:43:05;;;;;;;33.50;12.77;;;;;;;;;;6128610;23;20201;-91
2023/10/03 17:46:11;;;;;;;29.90;12.35;;;;;;;;;;6129438;23;20204;-95
2023/10/03 17:49:30;;;;;;;30.77;11.93;;;;;;;;;;6146365;23;20177;-92
2023/10/03 17:52:48;;;;;;;29.95;10.15;;;;;;;;;;6129173;23;20230;-92
2023/10/03 17:55:54;;;;;;;29.92;10.25;;;;;;;;;;6111362;23;20169;-93
2023/10/03 17:59:01;;;;;;;29.35;12.38;;;;;;;;;;6128020;23;20677;-89
2023/10/03 18:02:07;;;;;;;28.92;11.93;;;;;;;;;;6129706;23;20189;-93
2023/10/03 18:05:16;;;;;;;32.28;11.52;;;;;;;;;;6149292;23;20621;-93
2023/10/03 18:08:21;;;;;;;34.83;12.32;;;;;;;;;;6132180;23;20189;-92
2023/10/03 18:11:33;;;;;;;33.10;12.15;;;;;;;;;;6146972;23;20217;-90
2023/10/03 18:14:39;;;;;;;25.13;10.23;;;;;;;;;;6128954;23;20206;-93
2023/10/03 18:17:45;;;;;;;27.92;10.52;;;;;;;;;;6116338;23;20271;-94
2023/10/03 18:20:53;;;;;;;27.45;9.68;;;;;;;;;;6116777;23;20226;-94
2023/10/03 18:24:00;;;;;;;24.40;9.60;;;;;;;;;;6101013;23;20806;-93
2023/10/03 18:27:07;;;;;;;24.00;7.72;;;;;;;;;;6098750;23;20182;-92
2023/10/03 18:30:13;;;;;;;28.05;10.98;;;;;;;;;;6115056;23;20247;-93
2023/10/03 18:33:18;;;;;;;20.30;9.13;;;;;;;;;;6116356;23;20189;-93
2023/10/03 18:36:25;;;;;;;14.55;6.70;;;;;;;;;;6116581;23;20368;-92
2023/10/03 18:39:31;;;;;;;22.98;8.00;;;;;;;;;;6115226;23;20170;-91
2023/10/03 18:42:38;;;;;;;13.13;6.13;;;;;;;;;;6099493;23;20202;-93
2023/10/03 18:45:43;;;;;;;21.05;6.03;;;;;;;;;;6115286;23;20629;-94
2023/10/03 18:48:49;;;;;;;13.77;5.63;;;;;;;;;;6114429;23;20639;-91
2023/10/03 18:51:56;;;;;;;14.15;5.50;;;;;;;;;;6114326;23;20191;-92
2023/10/03 18:55:01;;;;;;;10.57;5.03;;;;;;;;;;6113792;23;20178;-93
2023/10/03 18:58:07;;;;;;;12.10;5.68;;;;;;;;;;6114919;23;20170;-92
2023/10/03 19:01:16;;;;;;;13.70;4.43;;;;;;;;;;6098824;23;20166;-95
2023/10/03 19:04:22;;;;;;;15.32;4.88;;;;;;;;;;6112585;23;20171;-92
2023/10/03 19:07:29;;;;;;;9.57;5.30;;;;;;;;;;6112651;23;20186;-94
2023/10/03 19:10:34;;;;;;;11.55;4.78;;;;;;;;;;6112370;23;20158;-91
2023/10/03 19:13:40;;;;;;;11.85;4.57;;;;;;;;;;6114182;23;20174;-93
2023/10/03 19:16:45;;;;;;;13.38;4.60;;;;;;;;;;6128813;23;20188;-94
2023/10/03 19:19:56;;;;;;;10.27;4.40;;;;;;;;;;6141628;23;20165;-91
2023/10/03 19:23:03;;;;;;;13.63;4.53;;;;;;;;;;6142256;23;20189;-93
2023/10/03 19:26:09;;;;;;;14.00;4.10;;;;;;;;;;6125541;23;20193;-91
2023/10/03 19:29:14;;;;;;;9.27;2.70;;;;;;;;;;6143988;23;20230;-94
2023/10/03 19:32:20;;;;;;;3.75;1.52;;;;;;;;;;6143755;23;20173;-91
2023/10/03 19:35:28;;;;;;;6.22;1.80;;;;;;;;;;6130262;23;20222;-91
2023/10/03 19:38:36;;;;;;;5.13;1.50;;;;;;;;;;6127704;23;20174;-93
2023/10/03 19:41:41;;;;;;;3.22;1.60;;;;;;;;;;6141622;23;20244;-90
2023/10/03 19:44:48;;;;;;;3.58;1.40;;;;;;;;;;6143505;23;20173;-90
2023/10/03 19:47:55;;;;;;;10.50;1.33;;;;;;;;;;6125966;23;20169;-91
2023/10/03 19:51:05;;;;;;;4.38;1.10;;;;;;;;;;6144941;23;20178;-89
2023/10/03 19:54:13;;;;;;;4.95;1.30;;;;;;;;;;6126003;23;20665;-94
2023/10/03 19:57:19;;;;;;;3.17;1.30;;;;;;;;;;6125232;23;20727;-92
2023/10/03 20:00:27;;;;;;;3.97;1.25;;;;;;;;;;6143349;23;20157;-92
2023/10/03 20:03:33;;;;;;;5.75;1.08;;;;;;;;;;6126364;23;20193;-93
2023/10/03 20:06:39;;;;;;;6.78;1.35;;;;;;;;;;6126563;23;20177;-91
2023/10/03 20:09:46;;;;;;;4.55;1.10;;;;;;;;;;6125076;23;20176;-92
2023/10/03 20:12:52;;;;;;;2.67;1.23;;;;;;;;;;6124594;23;20238;-92
2023/10/03 20:15:57;;;;;;;3.35;1.25;;;;;;;;;;6124849;23;20193;-91
2023/10/03 20:19:03;;;;;;;3.78;1.00;;;;;;;;;;6125237;23;20217;-95
2023/10/03 20:22:09;;;;;;;4.72;1.27;;;;;;;;;;6143730;23;20197;-93
2023/10/03 20:25:16;;;;;;;2.92;1.25;;;;;;;;;;6144822;23;20221;-94
2023/10/03 20:28:21;;;;;;;2.22;0.98;;;;;;;;;;6144322;23;20161;-92
2023/10/03 20:31:27;;;;;;;3.05;1.50;;;;;;;;;;6143008;23;20153;-90
2023/10/03 20:34:34;;;;;;;3.08;1.10;;;;;;;;;;6125654;23;20173;-92
2023/10/03 20:37:40;;;;;;;3.40;1.00;;;;;;;;;;6127811;23;20525;-92
2023/10/03 20:40:48;;;;;;;3.13;1.20;;;;;;;;;;6144114;23;20177;-90
2023/10/03 20:43:54;;;;;;;3.40;1.10;;;;;;;;;;6126795;23;20184;-92
2023/10/03 20:47:01;;;;;;;3.95;1.33;;;;;;;;;;6141589;23;20169;-91
2023/10/03 20:50:08;;;;;;;2.80;1.17;;;;;;;;;;6141437;23;20184;-95
2023/10/03 20:53:22;;;;;;;4.47;1.70;;;;;;;;;;6127425;23;20168;-91
2023/10/03 20:56:29;;;;;;;3.05;1.20;;;;;;;;;;6127124;23;20177;-91
2023/10/03 20:59:35;;;;;;;4.35;1.38;;;;;;;;;;6142114;23;20168;-92
2023/10/03 21:02:41;;;;;;;2.85;1.10;;;;;;;;;;6124152;23;20177;-91
2023/10/03 21:05:49;;;;;;;4.07;1.75;;;;;;;;;;6127439;23;20156;-92
2023/10/03 21:08:54;;;;;;;3.58;1.20;;;;;;;;;;6127795;23;20292;-92
2023/10/03 21:12:05;;;;;;;3.38;1.30;;;;;;;;;;6128289;23;20273;-89
2023/10/03 21:15:15;;;;;;;3.05;1.30;;;;;;;;;;6145254;23;20225;-90
2023/10/03 21:18:20;;;;;;;2.42;1.00;;;;;;;;;;6124246;23;20169;-92
2023/10/03 21:21:25;;;;;;;4.70;1.20;;;;;;;;;;6141191;23;20160;-93
2023/10/03 21:24:31;;;;;;;2.63;1.13;;;;;;;;;;6141647;23;20272;-95
2023/10/03 21:27:38;;;;;;;7.05;1.70;;;;;;;;;;6142536;23;20294;-90
2023/10/03 21:30:44;;;;;;;2.97;1.50;;;;;;;;;;6138947;23;20169;-92
2023/10/03 21:33:49;;;;;;;4.32;1.20;;;;;;;;;;6140179;23;20161;-92
2023/10/03 21:36:55;;;;;;;3.50;1.30;;;;;;;;;;6140653;23;20166;-93
2023/10/03 21:40:02;;;;;;;3.40;1.55;;;;;;;;;;6125802;23;20236;-94
2023/10/03 21:47:12;;;;;;;2.97;1.30;;;;;;;;;;6143180;23;20169;-92
2023/10/03 21:50:17;;;;;;;3.83;1.15;;;;;;;;;;6141974;23;20240;-94
2023/10/03 21:53:23;;;;;;;3.38;1.40;;;;;;;;;;6143842;23;20227;-91
2023/10/03 21:56:34;;;;;;;2.90;1.13;;;;;;;;;;6140435;23;20168;-91
2023/10/03 21:59:41;;;;;;;2.35;1.23;;;;;;;;;;6141117;23;20170;-92
2023/10/03 22:02:49;;;;;;;3.38;1.50;;;;;;;;;;6126207;23;20165;-93
2023/10/03 22:05:55;;;;;;;5.57;1.40;;;;;;;;;;6144736;23;20206;-94
2023/10/03 22:09:03;;;;;;;3.05;1.40;;;;;;;;;;6143664;23;20209;-93
2023/10/03 22:12:10;;;;;;;2.85;1.20;;;;;;;;;;6145138;23;20174;-94
2023/10/03 22:15:17;;;;;;;2.75;1.25;;;;;;;;;;6142765;23;20177;-92
2023/10/03 22:18:23;;;;;;;4.60;1.45;;;;;;;;;;6141681;23;20222;-92
2023/10/03 22:21:30;;;;;;;2.85;1.40;;;;;;;;;;6141313;23;20227;-91
2023/10/03 22:24:37;;;;;;;3.55;1.63;;;;;;;;;;6140557;23;20201;-90
2023/10/03 22:27:43;;;;;;;4.35;1.40;;;;;;;;;;6143482;23;20169;-91
2023/10/03 22:30:50;;;;;;;3.22;1.30;;;;;;;;;;6140521;23;20579;-93
2023/10/03 22:33:55;;;;;;;3.35;1.38;;;;;;;;;;6141243;23;20173;-90
2023/10/03 22:37:00;;;;;;;5.18;1.58;;;;;;;;;;6139793;23;20628;-92
2023/10/03 22:40:08;;;;;;;3.25;1.40;;;;;;;;;;6141592;23;20172;-93
2023/10/03 22:43:15;;;;;;;3.15;1.67;;;;;;;;;;6143697;23;20169;-90
2023/10/03 22:46:25;;;;;;;3.97;1.60;;;;;;;;;;6141715;23;20174;-91
2023/10/03 22:49:29;;;;;;;5.03;1.63;;;;;;;;;;6142212;23;20205;-89
2023/10/03 22:52:34;;;;;;;4.72;1.52;;;;;;;;;;6141530;23;20148;-90
2023/10/03 22:55:40;;;;;;;4.55;1.42;;;;;;;;;;6142852;23;20169;-91
2023/10/03 22:58:46;;;;;;;2.88;1.20;;;;;;;;;;6123709;23;20193;-92
2023/10/03 23:01:53;;;;;;;2.42;1.25;;;;;;;;;;6141410;23;20225;-93
2023/10/03 23:04:58;;;;;;;2.42;1.20;;;;;;;;;;6140452;23;20241;-90
2023/10/03 23:08:05;;;;;;;2.13;1.20;;;;;;;;;;6140081;23;20164;-89
2023/10/03 23:11:11;;;;;;;5.93;1.63;;;;;;;;;;6140676;23;20178;-93
2023/10/03 23:14:17;;;;;;;9.35;1.50;;;;;;;;;;6141707;23;20244;-92
2023/10/03 23:17:24;;;;;;;5.50;1.65;;;;;;;;;;6139506;23;20188;-92
2023/10/03 23:20:30;;;;;;;3.08;1.52;;;;;;;;;;6139135;23;20297;-93
2023/10/03 23:23:35;;;;;;;3.35;1.40;;;;;;;;;;6122994;23;20177;-88
2023/10/03 23:26:40;;;;;;;3.00;1.40;;;;;;;;;;6140201;23;20176;-94
2023/10/03 23:29:45;;;;;;;3.05;1.20;;;;;;;;;;6141391;23;20217;-95
2023/10/03 23:32:53;;;;;;;2.88;1.30;;;;;;;;;;6141465;23;20227;-93
2023/10/03 23:35:58;;;;;;;2.88;1.52;;;;;;;;;;6141778;23;20160;-93
2023/10/03 23:39:06;;;;;;;3.90;1.60;;;;;;;;;;6142028;23;20174;-91
2023/10/03 23:42:12;;;;;;;5.22;1.60;;;;;;;;;;6125976;23;20222;-91
2023/10/03 23:45:20;;;;;;;4.28;1.42;;;;;;;;;;6142169;23;20273;-92
2023/10/03 23:48:29;;;;;;;3.63;1.60;;;;;;;;;;6141330;23;20172;-92
2023/10/03 23:51:37;;;;;;;6.75;1.60;;;;;;;;;;6141130;23;20205;-91
2023/10/03 23:54:44;;;;;;;3.72;1.67;;;;;;;;;;6139608;23;20609;-94
2023/10/03 23:57:50;;;;;;;2.10;1.35;;;;;;;;;;6140143;23;20177;-91
